Time;durP1;ratioP1;P1;durP2;ratioP2;P2;SDS_P1;SDS_P2;PMS_P1;PMS_P2;Temp;Humidity;BMP_temperature;BMP_pressure;BME280_temperature;BME280_humidity;BME280_pressure;Samples;Min_cycle;Max_cycle;Signal;HPM_P1;HPM_P2
2023/03/09 00:00:21;;;;;;;;;;;;;;;8.47;100.00;99894.84;5090288;28;19915;-67
2023/03/09 00:02:47;;;;;;;;;;;;;;;8.48;98.60;99901.72;5090453;28;19961;-67
2023/03/09 00:05:12;;;;;;;;;;;;;;;8.38;99.40;99902.19;5090056;28;19994;-67
2023/03/09 00:07:38;;;;;;;;;;;;;;;8.28;99.99;99907.84;5090474;28;20043;-66
2023/03/09 00:10:03;;;;;;;;;;;;;;;8.17;100.00;99908.28;5089919;28;19919;-67
2023/03/09 00:12:29;;;;;;;;;;;;;;;7.90;100.00;99909.00;5091026;28;20006;-66
2023/03/09 00:14:54;;;;;;;;;;;;;;;7.92;100.00;99906.50;5093855;28;20289;-67
2023/03/09 00:17:20;;;;;;;;;;;;;;;7.72;100.00;99913.44;5094347;28;19916;-67
2023/03/09 00:19:46;;;;;;;;;;;;;;;7.46;100.00;99915.81;5093870;28;19912;-66
2023/03/09 00:22:11;;;;;;;;;;;;;;;7.28;100.00;99915.97;5094287;28;19916;-66
2023/03/09 00:24:45;;;;;;;;;;;;;;;7.38;100.00;99917.22;5093985;28;20441;-66
2023/03/09 00:27:10;;;;;;;;;;;;;;;7.54;100.00;99910.97;5093667;28;19989;-66
2023/03/09 00:29:36;;;;;;;;;;;;;;;7.67;100.00;99914.94;5093806;28;20550;-66
2023/03/09 00:32:01;;;;;;;;;;;;;;;7.73;100.00;99916.03;5091692;28;19969;-66
2023/03/09 00:34:26;;;;;;;;;;;;;;;7.76;100.00;99915.28;5093347;28;19962;-66
2023/03/09 00:36:52;;;;;;;;;;;;;;;7.86;100.00;99913.97;5093605;28;20302;-68
2023/03/09 00:39:17;;;;;;;;;;;;;;;7.89;100.00;99919.22;5093943;28;19916;-67
2023/03/09 00:41:43;;;;;;;;;;;;;;;7.81;100.00;99913.78;5093681;28;20282;-67
2023/03/09 00:44:09;;;;;;;;;;;;;;;7.75;100.00;99905.81;5093756;28;19911;-67
2023/03/09 00:46:35;;;;;;;;;;;;;;;7.84;100.00;99903.63;5093630;28;19912;-67
2023/03/09 00:49:02;;;;;;;;;;;;;;;8.00;100.00;99902.53;5093344;28;19935;-67
2023/03/09 00:51:27;;;;;;;;;;;;;;;8.18;100.00;99894.63;5093535;28;19919;-67
2023/03/09 00:53:54;;;;;;;;;;;;;;;8.33;100.00;99884.00;5091909;28;19920;-67
2023/03/09 00:56:21;;;;;;;;;;;;;;;8.40;100.00;99880.00;5093409;28;19916;-67
2023/03/09 00:58:47;;;;;;;;;;;;;;;8.41;100.00;99884.28;5093711;28;19916;-67
2023/03/09 01:01:13;;;;;;;;;;;;;;;8.47;100.00;99875.97;5093205;28;19919;-67
2023/03/09 01:03:38;;;;;;;;;;;;;;;8.45;100.00;99873.31;5092948;28;20006;-67
2023/03/09 01:06:04;;;;;;;;;;;;;;;8.41;100.00;99872.31;5093426;28;20015;-67
2023/03/09 01:08:30;;;;;;;;;;;;;;;8.35;100.00;99879.81;5093300;28;20006;-67
2023/03/09 01:10:55;;;;;;;;;;;;;;;8.37;100.00;99875.63;5093250;28;20366;-67
2023/03/09 01:13:20;;;;;;;;;;;;;;;8.39;100.00;99863.66;5093404;28;19979;-66
2023/03/09 01:15:46;;;;;;;;;;;;;;;8.46;100.00;99869.97;5093112;28;19969;-67
2023/03/09 01:18:11;;;;;;;;;;;;;;;8.30;100.00;99875.31;5091173;28;20377;-67
2023/03/09 01:20:36;;;;;;;;;;;;;;;7.96;100.00;99874.94;5092715;28;19911;-67
2023/03/09 01:23:01;;;;;;;;;;;;;;;7.74;100.00;99862.97;5091840;28;19912;-67
2023/03/09 01:25:27;;;;;;;;;;;;;;;7.49;100.00;99864.59;5091534;28;19912;-67
2023/03/09 01:27:52;;;;;;;;;;;;;;;7.59;100.00;99866.69;5093033;28;20049;-67
2023/03/09 01:30:17;;;;;;;;;;;;;;;7.30;100.00;99865.53;5092811;28;19955;-67
2023/03/09 01:32:43;;;;;;;;;;;;;;;7.49;100.00;99873.97;5092503;28;20422;-67
2023/03/09 01:35:08;;;;;;;;;;;;;;;7.67;100.00;99866.13;5092896;28;19938;-67
2023/03/09 01:37:33;;;;;;;;;;;;;;;7.82;100.00;99863.28;5092662;28;19912;-67
2023/03/09 01:39:59;;;;;;;;;;;;;;;7.80;100.00;99864.91;5092398;28;20006;-68
2023/03/09 01:42:24;;;;;;;;;;;;;;;7.69;100.00;99867.94;5092761;28;19969;-67
2023/03/09 01:45:08;;;;;;;;;;;;;;;7.66;100.00;99878.06;5092482;28;19916;-67
2023/03/09 01:47:33;;;;;;;;;;;;;;;7.85;100.00;99869.41;5079818;28;19923;-67
2023/03/09 01:50:00;;;;;;;;;;;;;;;7.91;100.00;99869.63;5092389;28;20373;-68
2023/03/09 01:52:26;;;;;;;;;;;;;;;8.02;100.00;99864.88;5090072;28;20282;-67
2023/03/09 01:55:04;;;;;;;;;;;;;;;8.07;100.00;99863.38;5091943;28;20018;-67
2023/03/09 01:57:29;;;;;;;;;;;;;;;8.14;100.00;99855.88;5092112;28;19920;-67
2023/03/09 01:59:56;;;;;;;;;;;;;;;8.22;99.51;99859.59;5091992;28;19916;-67
2023/03/09 02:02:24;;;;;;;;;;;;;;;8.26;97.95;99857.22;5092379;28;19923;-67
2023/03/09 02:04:52;;;;;;;;;;;;;;;8.32;97.56;99864.25;5090821;28;19908;-67
2023/03/09 02:07:18;;;;;;;;;;;;;;;8.38;96.69;99861.03;5092229;28;19916;-67
2023/03/09 02:09:59;;;;;;;;;;;;;;;8.41;95.51;99864.59;5091912;28;19912;-67
2023/03/09 02:12:25;;;;;;;;;;;;;;;8.24;95.46;99866.56;5091810;28;20002;-67
2023/03/09 02:14:50;;;;;;;;;;;;;;;8.29;95.10;99868.41;5092144;28;20030;-67
2023/03/09 02:17:19;;;;;;;;;;;;;;;8.30;95.19;99859.88;5092074;28;19919;-67
2023/03/09 02:19:50;;;;;;;;;;;;;;;8.30;95.02;99863.34;5091853;28;20006;-67
2023/03/09 02:22:16;;;;;;;;;;;;;;;8.30;94.28;99862.44;5091752;28;20370;-67
2023/03/09 02:24:54;;;;;;;;;;;;;;;8.10;94.56;99872.91;5091378;28;19954;-67
2023/03/09 02:27:21;;;;;;;;;;;;;;;8.12;94.54;99876.38;5091408;28;20393;-67
2023/03/09 02:29:46;;;;;;;;;;;;;;;8.16;94.14;99873.13;5091714;28;19944;-67
2023/03/09 02:32:12;;;;;;;;;;;;;;;8.23;94.98;99877.66;5090944;28;19959;-67
2023/03/09 02:34:37;;;;;;;;;;;;;;;8.24;95.44;99871.69;5090283;28;19912;-67
2023/03/09 02:37:03;;;;;;;;;;;;;;;8.18;95.87;99874.03;5090974;28;19912;-67
2023/03/09 02:39:38;;;;;;;;;;;;;;;8.00;95.73;99870.78;5090351;28;19989;-67
2023/03/09 02:42:04;;;;;;;;;;;;;;;7.87;96.04;99875.47;5091044;28;19912;-67
2023/03/09 02:44:30;;;;;;;;;;;;;;;7.80;96.16;99873.50;5091261;28;19946;-67
2023/03/09 02:46:55;;;;;;;;;;;;;;;7.75;96.96;99868.16;5091194;28;20361;-67
2023/03/09 02:49:20;;;;;;;;;;;;;;;7.75;97.54;99877.56;5091121;28;19999;-67
2023/03/09 02:51:46;;;;;;;;;;;;;;;7.72;97.27;99867.19;5090864;28;19908;-67
2023/03/09 02:54:11;;;;;;;;;;;;;;;7.65;97.51;99870.31;5091217;28;20335;-67
2023/03/09 02:56:36;;;;;;;;;;;;;;;7.38;97.44;99865.88;5091391;28;19916;-67
2023/03/09 02:59:02;;;;;;;;;;;;;;;7.23;97.73;99859.28;5091191;28;19945;-67
2023/03/09 03:01:27;;;;;;;;;;;;;;;7.17;98.68;99866.72;5091214;28;20011;-67
2023/03/09 03:03:53;;;;;;;;;;;;;;;7.20;98.95;99856.59;5091261;28;19921;-67
2023/03/09 03:06:18;;;;;;;;;;;;;;;7.22;99.62;99854.09;5090756;28;19912;-67
2023/03/09 03:08:43;;;;;;;;;;;;;;;7.20;100.00;99845.44;5091004;28;20007;-67
2023/03/09 03:11:09;;;;;;;;;;;;;;;7.12;100.00;99847.69;5090574;28;19918;-67
2023/03/09 03:13:34;;;;;;;;;;;;;;;6.95;100.00;99855.59;5090954;28;19912;-67
2023/03/09 03:16:00;;;;;;;;;;;;;;;6.86;100.00;99850.06;5091032;28;20460;-67
2023/03/09 03:18:25;;;;;;;;;;;;;;;6.83;100.00;99852.50;5091117;28;19912;-67
2023/03/09 03:20:50;;;;;;;;;;;;;;;6.81;100.00;99851.56;5090558;28;19915;-67
2023/03/09 03:23:16;;;;;;;;;;;;;;;6.73;100.00;99852.91;5090530;28;20437;-67
2023/03/09 03:25:41;;;;;;;;;;;;;;;6.64;100.00;99853.41;5090489;28;19915;-67
2023/03/09 03:28:06;;;;;;;;;;;;;;;6.57;100.00;99852.28;5089602;28;20343;-67
2023/03/09 03:30:32;;;;;;;;;;;;;;;6.48;100.00;99857.88;5090401;28;19998;-67
2023/03/09 03:32:57;;;;;;;;;;;;;;;6.43;100.00;99869.63;5090680;28;19916;-66
2023/03/09 03:35:22;;;;;;;;;;;;;;;6.32;100.00;99865.72;5090676;28;19912;-66
2023/03/09 03:37:48;;;;;;;;;;;;;;;6.22;100.00;99868.66;5090035;28;19916;-66
2023/03/09 03:40:13;;;;;;;;;;;;;;;6.15;100.00;99868.38;5090886;28;19912;-66
2023/03/09 03:42:38;;;;;;;;;;;;;;;6.09;100.00;99867.25;5090197;28;19958;-66
2023/03/09 03:45:04;;;;;;;;;;;;;;;6.03;100.00;99864.41;5090760;28;19978;-67
2023/03/09 03:47:29;;;;;;;;;;;;;;;6.05;100.00;99860.25;5091093;28;20293;-67
2023/03/09 03:49:54;;;;;;;;;;;;;;;6.05;100.00;99861.09;5094653;28;20331;-67
2023/03/09 03:52:20;;;;;;;;;;;;;;;6.12;100.00;99852.88;5094133;28;19911;-67
2023/03/09 03:54:45;;;;;;;;;;;;;;;6.15;100.00;99858.13;5094676;28;19916;-67
2023/03/09 03:57:10;;;;;;;;;;;;;;;6.23;100.00;99855.03;5094499;28;19916;-67
2023/03/09 03:59:36;;;;;;;;;;;;;;;6.32;100.00;99864.03;5094306;28;19912;-67
2023/03/09 04:02:01;;;;;;;;;;;;;;;6.39;100.00;99856.59;5094319;28;19919;-67
2023/03/09 04:04:26;;;;;;;;;;;;;;;6.38;100.00;99852.28;5094063;28;20389;-66
2023/03/09 04:06:51;;;;;;;;;;;;;;;6.43;100.00;99855.91;5093762;28;19935;-67
2023/03/09 04:09:17;;;;;;;;;;;;;;;6.49;100.00;99858.75;5094022;28;19912;-67
2023/03/09 04:11:42;;;;;;;;;;;;;;;6.51;100.00;99853.72;5094254;28;20377;-67
2023/03/09 04:14:07;;;;;;;;;;;;;;;6.50;100.00;99850.25;5092827;28;20060;-68
2023/03/09 04:16:33;;;;;;;;;;;;;;;6.52;100.00;99847.75;5081954;28;19916;-67
2023/03/09 04:18:58;;;;;;;;;;;;;;;6.55;100.00;99843.63;5074424;28;19908;-67
2023/03/09 04:21:23;;;;;;;;;;;;;;;6.58;100.00;99850.56;5073870;28;20510;-67
2023/03/09 04:23:49;;;;;;;;;;;;;;;6.64;100.00;99849.16;5074329;28;19920;-67
2023/03/09 04:26:14;;;;;;;;;;;;;;;6.66;100.00;99858.63;5074071;28;19913;-67
2023/03/09 04:28:40;;;;;;;;;;;;;;;6.71;100.00;99849.44;5073938;28;19916;-67
2023/03/09 04:31:05;;;;;;;;;;;;;;;6.80;100.00;99847.22;5073870;28;20352;-67
2023/03/09 04:33:30;;;;;;;;;;;;;;;6.82;100.00;99843.06;5073972;28;19956;-67
2023/03/09 04:35:56;;;;;;;;;;;;;;;6.89;100.00;99847.63;5073629;28;19916;-67
2023/03/09 04:38:21;;;;;;;;;;;;;;;6.83;100.00;99849.06;5090454;28;19919;-67
2023/03/09 04:40:46;;;;;;;;;;;;;;;6.59;100.00;99821.56;5104840;28;20373;-67
2023/03/09 04:43:11;;;;;;;;;;;;;;;6.79;100.00;99858.31;5109365;28;19916;-67
2023/03/09 04:45:37;;;;;;;;;;;;;;;6.75;100.00;99861.56;5114708;28;19920;-67
2023/03/09 04:48:02;;;;;;;;;;;;;;;6.69;100.00;99864.75;5077003;28;19916;-67
2023/03/09 04:50:28;;;;;;;;;;;;;;;6.72;100.00;99859.75;5075483;28;20441;-67
2023/03/09 04:52:55;;;;;;;;;;;;;;;6.71;100.00;99868.25;5074583;28;20267;-67
2023/03/09 04:55:21;;;;;;;;;;;;;;;6.78;100.00;99867.69;5091343;28;19916;-67
2023/03/09 04:57:46;;;;;;;;;;;;;;;6.82;100.00;99865.25;5073419;28;20560;-67
2023/03/09 05:00:11;;;;;;;;;;;;;;;6.90;100.00;99869.03;5073387;28;19963;-67
2023/03/09 05:02:38;;;;;;;;;;;;;;;6.97;100.00;99861.66;5073457;28;20317;-66
2023/03/09 05:05:04;;;;;;;;;;;;;;;7.03;100.00;99860.13;5073097;28;19908;-67
2023/03/09 05:07:29;;;;;;;;;;;;;;;6.84;100.00;99863.63;5081927;28;19919;-68
2023/03/09 05:09:54;;;;;;;;;;;;;;;6.80;100.00;99872.91;5093550;28;19912;-67
2023/03/09 05:12:20;;;;;;;;;;;;;;;6.83;100.00;99872.16;5112120;28;19923;-67
2023/03/09 05:14:46;;;;;;;;;;;;;;;6.86;100.00;99869.72;5100332;28;20298;-67
2023/03/09 05:17:11;;;;;;;;;;;;;;;6.83;100.00;99872.16;5100806;28;19916;-68
2023/03/09 05:19:37;;;;;;;;;;;;;;;6.75;100.00;99872.72;5108259;28;20030;-68
2023/03/09 05:22:03;;;;;;;;;;;;;;;6.78;100.00;99869.41;5113448;28;20289;-67
2023/03/09 05:24:28;;;;;;;;;;;;;;;6.89;100.00;99873.31;5113737;28;20022;-68
2023/03/09 05:26:53;;;;;;;;;;;;;;;6.83;100.00;99874.72;5113770;28;19916;-67
2023/03/09 05:29:19;;;;;;;;;;;;;;;6.72;100.00;99871.72;5104464;28;19926;-68
2023/03/09 05:31:44;;;;;;;;;;;;;;;6.80;100.00;99865.19;5093254;28;19973;-67
2023/03/09 05:34:09;;;;;;;;;;;;;;;6.89;100.00;99869.84;5093063;28;19955;-67
2023/03/09 05:36:35;;;;;;;;;;;;;;;6.99;100.00;99868.53;5092574;28;20400;-66
2023/03/09 05:39:00;;;;;;;;;;;;;;;7.06;100.00;99868.84;5093303;28;19919;-66
2023/03/09 05:41:25;;;;;;;;;;;;;;;7.10;100.00;99867.28;5093227;28;19994;-66
2023/03/09 05:43:50;;;;;;;;;;;;;;;7.17;100.00;99873.56;5095053;28;19916;-67
2023/03/09 05:46:16;;;;;;;;;;;;;;;7.25;100.00;99885.91;5113297;27;19912;-66
2023/03/09 05:48:42;;;;;;;;;;;;;;;7.28;100.00;99874.88;5113583;28;20365;-66
2023/03/09 05:51:07;;;;;;;;;;;;;;;7.28;100.00;99869.75;5113052;28;19919;-66
2023/03/09 05:53:33;;;;;;;;;;;;;;;7.18;100.00;99878.75;5113530;28;20002;-66
2023/03/09 05:55:58;;;;;;;;;;;;;;;7.15;100.00;99865.78;5113459;28;20432;-66
2023/03/09 05:58:24;;;;;;;;;;;;;;;7.09;100.00;99871.56;5113447;28;19998;-66
2023/03/09 06:00:52;;;;;;;;;;;;;;;7.11;100.00;99879.31;5103642;28;19916;-66
2023/03/09 06:03:17;;;;;;;;;;;;;;;7.16;100.00;99884.66;5090266;28;19923;-66
2023/03/09 06:05:42;;;;;;;;;;;;;;;7.25;100.00;99891.03;5085568;28;19916;-66
2023/03/09 06:08:08;;;;;;;;;;;;;;;7.36;100.00;99882.88;5078324;28;19919;-67
2023/03/09 06:10:33;;;;;;;;;;;;;;;7.52;100.00;99889.53;5100588;28;20381;-66
2023/03/09 06:12:59;;;;;;;;;;;;;;;7.68;100.00;99885.88;5086847;28;19916;-67
2023/03/09 06:15:24;;;;;;;;;;;;;;;7.79;100.00;99882.03;5078061;28;20290;-66
2023/03/09 06:17:49;;;;;;;;;;;;;;;7.82;100.00;99891.53;5098371;28;20280;-66
2023/03/09 06:20:15;;;;;;;;;;;;;;;7.90;100.00;99883.31;5096444;28;20348;-69
2023/03/09 06:22:40;;;;;;;;;;;;;;;8.05;100.00;99885.56;5092077;28;19911;-69
2023/03/09 06:25:06;;;;;;;;;;;;;;;8.17;100.00;99881.72;5111503;28;19919;-69
2023/03/09 06:27:33;;;;;;;;;;;;;;;8.26;100.00;99880.34;5112427;27;19919;-69
2023/03/09 06:29:58;;;;;;;;;;;;;;;8.39;100.00;99885.94;5112440;28;20352;-69
2023/03/09 06:32:23;;;;;;;;;;;;;;;8.56;100.00;99884.00;5100679;28;19926;-69
2023/03/09 06:34:49;;;;;;;;;;;;;;;8.71;100.00;99896.53;5092106;28;19912;-69
2023/03/09 06:37:14;;;;;;;;;;;;;;;8.85;100.00;99895.31;5091935;28;19912;-69
2023/03/09 06:39:39;;;;;;;;;;;;;;;9.03;100.00;99895.09;5092095;28;19912;-69
2023/03/09 06:42:05;;;;;;;;;;;;;;;9.12;100.00;99893.63;5091852;28;19942;-69
2023/03/09 06:44:30;;;;;;;;;;;;;;;9.20;100.00;99900.78;5092391;28;20311;-69
2023/03/09 06:46:56;;;;;;;;;;;;;;;9.18;100.00;99892.16;5091774;28;19919;-69
2023/03/09 06:49:21;;;;;;;;;;;;;;;9.42;100.00;99895.47;5091584;28;19912;-69
2023/03/09 06:51:46;;;;;;;;;;;;;;;9.63;100.00;99890.13;5091963;28;19926;-68
2023/03/09 06:54:13;;;;;;;;;;;;;;;9.77;100.00;99900.84;5091675;28;20403;-69
2023/03/09 06:56:38;;;;;;;;;;;;;;;9.90;100.00;99902.13;5092181;28;20001;-68
2023/03/09 06:59:04;;;;;;;;;;;;;;;10.07;100.00;99889.72;5091689;28;19951;-68
2023/03/09 07:01:29;;;;;;;;;;;;;;;10.25;100.00;99892.84;5085680;28;19922;-66
2023/03/09 07:03:56;;;;;;;;;;;;;;;10.44;100.00;99885.66;5071292;28;19916;-65
2023/03/09 07:06:22;;;;;;;;;;;;;;;10.58;100.00;99886.03;5071508;28;19912;-66
2023/03/09 07:08:47;;;;;;;;;;;;;;;10.72;100.00;99899.34;5071425;28;20031;-67
2023/03/09 07:11:12;;;;;;;;;;;;;;;10.71;100.00;99902.75;5071372;28;19979;-69
2023/03/09 07:13:38;;;;;;;;;;;;;;;10.91;100.00;99891.22;5086583;28;20298;-68
2023/03/09 07:16:04;;;;;;;;;;;;;;;11.12;100.00;99893.50;5071186;28;19969;-68
2023/03/09 07:18:30;;;;;;;;;;;;;;;11.28;100.00;99891.31;5068790;28;20029;-70
2023/03/09 07:20:58;;;;;;;;;;;;;;;11.28;99.70;99894.75;5070975;28;19962;-71
2023/03/09 07:23:23;;;;;;;;;;;;;;;11.50;97.78;99892.69;5071088;28;20358;-69
2023/03/09 07:25:48;;;;;;;;;;;;;;;11.65;96.06;99890.47;5070862;28;19927;-66
2023/03/09 07:28:13;;;;;;;;;;;;;;;11.74;95.50;99888.91;5071653;28;20004;-67
2023/03/09 07:30:39;;;;;;;;;;;;;;;11.84;95.40;99875.38;5071304;28;19920;-66
2023/03/09 07:33:04;;;;;;;;;;;;;;;12.04;94.51;99878.44;5070689;28;19912;-67
2023/03/09 07:35:29;;;;;;;;;;;;;;;12.10;92.85;99883.72;5070986;28;20332;-67
2023/03/09 07:37:55;;;;;;;;;;;;;;;12.15;92.93;99886.44;5071128;28;19912;-67
2023/03/09 07:40:20;;;;;;;;;;;;;;;12.22;92.71;99880.50;5070994;28;19912;-67
2023/03/09 07:42:53;;;;;;;;;;;;;;;12.27;92.58;99870.25;5071142;28;19913;-70
2023/03/09 07:45:19;;;;;;;;;;;;;;;12.36;91.80;99869.56;5070717;28;19955;-70
2023/03/09 07:47:44;;;;;;;;;;;;;;;12.40;91.88;99867.09;5070713;28;19963;-70
2023/03/09 07:50:09;;;;;;;;;;;;;;;12.48;92.13;99868.97;5070772;28;19952;-70
2023/03/09 07:52:35;;;;;;;;;;;;;;;12.61;90.68;99866.63;5071054;28;19957;-69
2023/03/09 07:55:00;;;;;;;;;;;;;;;12.70;90.18;99871.09;5085728;28;19938;-70
2023/03/09 07:57:30;;;;;;;;;;;;;;;12.81;89.55;99867.81;5090804;28;20384;-69
2023/03/09 07:59:56;;;;;;;;;;;;;;;12.88;89.95;99856.75;5090923;28;19912;-70
2023/03/09 08:02:21;;;;;;;;;;;;;;;12.82;90.22;99847.13;5090775;28;19968;-69
2023/03/09 08:04:47;;;;;;;;;;;;;;;12.77;88.85;99853.94;5090622;28;20031;-70
2023/03/09 08:07:12;;;;;;;;;;;;;;;12.91;88.82;99846.41;5090360;28;19934;-70
2023/03/09 08:09:38;;;;;;;;;;;;;;;13.01;88.83;99842.25;5090834;28;19912;-69
2023/03/09 08:12:04;;;;;;;;;;;;;;;13.09;88.68;99843.28;5090641;28;19916;-69
2023/03/09 08:14:29;;;;;;;;;;;;;;;13.19;89.11;99839.13;5090760;28;19916;-69
2023/03/09 08:16:54;;;;;;;;;;;;;;;13.15;88.79;99835.59;5090443;28;20400;-70
2023/03/09 08:19:21;;;;;;;;;;;;;;;13.26;88.42;99852.19;5091152;28;19911;-69
2023/03/09 08:21:47;;;;;;;;;;;;;;;13.38;87.06;99848.09;5090769;28;19912;-70
2023/03/09 08:24:13;;;;;;;;;;;;;;;13.49;85.53;99846.53;5090498;28;19918;-70
2023/03/09 12:56:09;;;;;;;;;;;;;;;19.91;43.72;99484.66;5049233;28;19938;-70
2023/03/09 12:58:36;;;;;;;;;;;;;;;19.89;44.66;99482.06;5047872;28;19916;-70
2023/03/09 13:01:10;;;;;;;;;;;;;;;19.87;44.98;99484.69;5007192;28;20350;-69
2023/03/09 13:03:36;;;;;;;;;;;;;;;19.98;43.69;99483.66;5033734;28;19959;-70
2023/03/09 13:06:19;;;;;;;;;;;;;;;20.05;42.76;99477.44;5033933;28;19937;-69
2023/03/09 13:08:50;;;;;;;;;;;;;;;20.06;41.56;99475.66;5066064;28;19912;-69
2023/03/09 13:11:24;;;;;;;;;;;;;;;20.02;43.42;99470.47;5073770;28;19919;-69
2023/03/09 13:13:53;;;;;;;;;;;;;;;20.05;42.43;99469.56;5073777;28;19924;-70
2023/03/09 13:16:34;;;;;;;;;;;;;;;19.96;41.50;99467.97;5073748;28;19920;-70
2023/03/09 13:19:15;;;;;;;;;;;;;;;19.84;40.85;99465.56;5073404;28;20300;-70
2023/03/09 13:21:40;;;;;;;;;;;;;;;19.66;40.61;99480.66;5073626;28;20428;-69
2023/03/09 13:24:17;;;;;;;;;;;;;;;19.64;41.68;99479.81;5053286;28;19920;-70
2023/03/09 13:26:44;;;;;;;;;;;;;;;19.70;42.54;99473.59;5053336;28;19924;-70
2023/03/09 13:29:09;;;;;;;;;;;;;;;19.77;40.26;99479.63;5053380;28;20007;-70
2023/03/09 13:31:35;;;;;;;;;;;;;;;19.78;39.04;99474.34;5053269;28;20043;-70
2023/03/09 13:34:02;;;;;;;;;;;;;;;19.71;39.62;99477.97;5053274;28;19917;-70
2023/03/09 13:36:29;;;;;;;;;;;;;;;19.69;39.48;99467.53;5053272;28;19940;-70
2023/03/09 13:39:03;;;;;;;;;;;;;;;19.69;40.80;99457.03;5053671;28;19909;-70
2023/03/09 13:41:28;;;;;;;;;;;;;;;19.71;40.34;99459.63;5053103;28;19930;-69
2023/03/09 13:43:55;;;;;;;;;;;;;;;19.71;41.17;99447.41;5053181;28;19912;-69
2023/03/09 13:46:25;;;;;;;;;;;;;;;19.78;40.54;99442.94;5052905;28;19913;-70
2023/03/09 13:48:53;;;;;;;;;;;;;;;19.76;40.78;99434.22;5053093;28;19913;-69
2023/03/09 13:51:23;;;;;;;;;;;;;;;19.78;40.76;99436.84;5052833;28;20263;-69
2023/03/09 13:53:48;;;;;;;;;;;;;;;19.81;40.82;99424.56;5052980;28;19917;-70
2023/03/09 13:56:14;;;;;;;;;;;;;;;19.87;40.33;99431.47;5053076;28;19974;-70
2023/03/09 13:58:41;;;;;;;;;;;;;;;19.91;40.56;99430.50;5052953;28;20382;-70
2023/03/09 14:01:06;;;;;;;;;;;;;;;19.93;41.35;99435.72;5052742;28;19913;-70
2023/03/09 14:03:32;;;;;;;;;;;;;;;19.93;40.69;99446.22;5052769;28;19912;-70
2023/03/09 14:06:09;;;;;;;;;;;;;;;19.93;41.12;99439.22;5052584;28;19971;-70
2023/03/09 14:08:44;;;;;;;;;;;;;;;19.87;43.77;99448.03;5052576;28;20019;-69
2023/03/09 14:11:19;;;;;;;;;;;;;;;19.82;45.41;99434.13;5052554;28;19967;-70
2023/03/09 14:13:49;;;;;;;;;;;;;;;19.74;45.55;99430.78;5052608;28;19979;-70
2023/03/09 14:16:16;;;;;;;;;;;;;;;19.68;46.32;99428.28;5052552;28;19913;-70
2023/03/09 14:18:45;;;;;;;;;;;;;;;19.56;47.51;99417.13;5052473;28;19913;-70
2023/03/09 14:21:20;;;;;;;;;;;;;;;19.53;47.26;99424.16;5052319;28;20015;-69
2023/03/09 14:23:45;;;;;;;;;;;;;;;19.53;47.62;99435.47;5052474;28;19912;-70
2023/03/09 14:26:11;;;;;;;;;;;;;;;19.52;48.60;99436.38;5052279;28;19917;-69
2023/03/09 14:28:41;;;;;;;;;;;;;;;19.49;49.18;99440.78;5052324;28;19912;-69
2023/03/09 14:31:21;;;;;;;;;;;;;;;19.49;49.81;99446.03;5051306;28;20377;-70
2023/03/09 14:34:13;;;;;;;;;;;;;;;19.40;49.37;99441.78;5052362;28;19916;-70
2023/03/09 14:36:44;;;;;;;;;;;;;;;19.37;49.45;99436.63;4999837;28;19968;-70
2023/03/09 14:39:18;;;;;;;;;;;;;;;19.31;50.14;99436.72;5003901;28;20387;-70
2023/03/09 14:41:43;;;;;;;;;;;;;;;19.38;50.89;99441.81;4990318;28;19960;-69
2023/03/09 14:44:27;;;;;;;;;;;;;;;19.37;50.49;99441.88;4990123;28;20606;-69
2023/03/09 14:46:52;;;;;;;;;;;;;;;19.36;51.14;99445.38;4990082;28;19928;-69
2023/03/09 14:49:17;;;;;;;;;;;;;;;19.34;51.58;99440.16;4995779;28;19917;-70
2023/03/09 14:51:43;;;;;;;;;;;;;;;19.39;51.86;99443.56;4997235;28;19918;-72
2023/03/09 14:54:11;;;;;;;;;;;;;;;19.40;52.30;99440.06;4996991;28;19913;-71
2023/03/09 14:56:36;;;;;;;;;;;;;;;19.43;51.34;99436.53;4998676;28;19918;-70
2023/03/09 14:59:20;;;;;;;;;;;;;;;19.44;50.70;99440.00;4971452;28;20368;-70
2023/03/09 15:01:47;;;;;;;;;;;;;;;19.21;51.34;99431.63;4970104;28;19914;-70
2023/03/09 15:04:14;;;;;;;;;;;;;;;19.28;52.54;99435.03;4970107;28;19973;-70
2023/03/09 15:06:39;;;;;;;;;;;;;;;19.22;51.87;99433.34;4970115;28;19918;-70
2023/03/09 15:09:05;;;;;;;;;;;;;;;19.18;52.83;99436.06;4970156;28;20421;-69
2023/03/09 15:11:30;;;;;;;;;;;;;;;19.19;53.24;99441.25;4970146;28;19917;-69
2023/03/09 15:13:56;;;;;;;;;;;;;;;19.17;53.99;99429.94;4993683;28;19921;-70
2023/03/09 15:16:21;;;;;;;;;;;;;;;19.11;54.51;99430.03;5031307;28;19913;-70
2023/03/09 15:18:47;;;;;;;;;;;;;;;19.11;54.87;99424.81;5031297;28;19916;-69
2023/03/09 15:21:12;;;;;;;;;;;;;;;19.08;55.91;99428.31;5013367;28;19931;-70
2023/03/09 15:23:37;;;;;;;;;;;;;;;19.00;54.77;99434.56;5031194;28;19984;-70
2023/03/09 15:26:04;;;;;;;;;;;;;;;18.85;54.10;99435.59;5007371;28;20398;-74
2023/03/09 15:28:29;;;;;;;;;;;;;;;18.75;54.86;99438.34;5031333;28;20401;-70
2023/03/09 15:30:54;;;;;;;;;;;;;;;18.73;54.58;99441.88;5030690;28;20003;-69
2023/03/09 15:33:19;;;;;;;;;;;;;;;18.49;54.62;99436.06;5030266;28;20426;-70
2023/03/09 15:35:45;;;;;;;;;;;;;;;18.36;55.27;99437.09;5031258;28;20264;-70
2023/03/09 15:38:10;;;;;;;;;;;;;;;18.27;55.52;99449.38;5031020;28;20298;-70
2023/03/09 15:40:35;;;;;;;;;;;;;;;18.13;56.14;99451.28;5030726;28;19963;-70
2023/03/09 15:43:01;;;;;;;;;;;;;;;18.03;56.36;99452.22;5029647;28;19913;-70
2023/03/09 15:45:26;;;;;;;;;;;;;;;17.94;56.38;99454.06;5029973;28;19921;-70
2023/03/09 15:47:52;;;;;;;;;;;;;;;17.87;56.97;99452.38;5030358;28;19913;-70
2023/03/09 15:50:18;;;;;;;;;;;;;;;17.78;57.48;99455.94;5030691;28;19913;-70
2023/03/09 15:52:43;;;;;;;;;;;;;;;17.66;57.73;99460.38;5030351;28;19924;-69
2023/03/09 15:55:09;;;;;;;;;;;;;;;17.58;58.04;99463.03;5030690;28;20314;-70
2023/03/09 15:57:34;;;;;;;;;;;;;;;17.42;58.58;99451.84;5036586;28;19951;-69
2023/03/09 15:59:59;;;;;;;;;;;;;;;17.34;58.49;99458.88;5050660;28;20035;-69
2023/03/09 16:02:25;;;;;;;;;;;;;;;17.29;58.88;99457.16;5050728;28;19967;-70
2023/03/09 16:04:50;;;;;;;;;;;;;;;17.21;59.81;99460.69;5050501;28;20636;-70
2023/03/09 16:07:16;;;;;;;;;;;;;;;17.08;60.80;99454.69;5050279;28;19979;-70
2023/03/09 16:09:41;;;;;;;;;;;;;;;16.92;62.14;99449.59;5050616;28;19989;-69
2023/03/09 16:12:07;;;;;;;;;;;;;;;16.73;62.99;99458.34;5051017;28;19963;-69
2023/03/09 16:14:32;;;;;;;;;;;;;;;16.62;64.39;99451.44;5050881;28;19924;-69
2023/03/09 16:16:58;;;;;;;;;;;;;;;16.55;63.70;99454.03;5050594;28;20359;-69
2023/03/09 16:19:23;;;;;;;;;;;;;;;16.41;64.30;99462.81;5050544;28;19952;-69
2023/03/09 16:21:48;;;;;;;;;;;;;;;16.39;66.62;99455.88;5051107;28;20003;-69
2023/03/09 16:24:14;;;;;;;;;;;;;;;16.25;67.05;99453.28;5050215;28;20383;-69
2023/03/09 16:26:39;;;;;;;;;;;;;;;16.08;67.67;99451.59;5050368;28;19920;-70
2023/03/09 16:29:07;;;;;;;;;;;;;;;15.95;68.07;99449.84;5049564;28;19961;-73
2023/03/09 16:31:32;;;;;;;;;;;;;;;15.80;68.84;99458.53;5049456;28;20003;-71
2023/03/09 16:33:57;;;;;;;;;;;;;;;15.76;68.54;99472.41;5049229;28;20453;-70
2023/03/09 16:36:23;;;;;;;;;;;;;;;15.69;68.41;99464.59;5084414;22;20040;-67
2023/03/09 16:38:49;;;;;;;;;;;;;;;15.74;68.91;99463.72;5064691;28;19923;-68
2023/03/09 16:41:15;;;;;;;;;;;;;;;15.69;68.66;99474.16;5086847;28;19916;-68
2023/03/09 16:43:40;;;;;;;;;;;;;;;15.56;69.30;99470.66;5089980;28;19919;-68
2023/03/09 16:46:06;;;;;;;;;;;;;;;15.55;69.42;99474.13;5087626;28;19963;-68
2023/03/09 16:48:32;;;;;;;;;;;;;;;15.50;69.37;99470.66;5076537;28;19919;-69
2023/03/09 16:50:58;;;;;;;;;;;;;;;15.41;70.19;99476.72;5085502;28;20368;-67
2023/03/09 16:53:24;;;;;;;;;;;;;;;15.25;71.13;99464.56;5089818;28;19959;-69
2023/03/09 16:56:04;;;;;;;;;;;;;;;15.21;71.55;99487.09;5084856;28;19928;-69
2023/03/09 16:58:30;;;;;;;;;;;;;;;15.13;71.59;99491.44;5090486;28;19955;-69
2023/03/09 17:00:55;;;;;;;;;;;;;;;15.00;71.90;99486.19;5092752;28;19974;-69
2023/03/09 17:03:21;;;;;;;;;;;;;;;15.01;72.29;99484.44;5080575;28;19916;-69
2023/03/09 17:05:50;;;;;;;;;;;;;;;14.90;71.92;99483.56;5090153;28;20016;-69
2023/03/09 17:08:16;;;;;;;;;;;;;;;14.74;72.68;99475.69;5092716;28;19988;-69
2023/03/09 17:10:41;;;;;;;;;;;;;;;14.70;72.92;99481.75;5080682;28;20003;-69
2023/03/09 17:13:07;;;;;;;;;;;;;;;14.67;73.91;99487.78;5077945;28;19930;-69